Sigfox identifier Datetime Temperature Humidity SNR
003C0CB6 2018-10-09 08:12:45 20.9 39 18.9
003C0CB6 2018-10-09 07:04:34 20.8 39 18.7
003C0CB6 2018-10-09 05:56:26 20.8 38 18.5
003C0CB6 2018-10-09 04:48:13 20.8 38 18.7
003C0CB6 2018-10-09 01:23:50 20.8 37 18.8
003C0CB6 2018-10-09 00:15:43 20.8 37 18.5
003C0CB6 2018-10-08 23:07:32 20.8 37 18.5
003C0CB6 2018-10-08 21:59:23 20.9 37 18.3
003C0CB6 2018-10-08 20:51:16 20.9 37 17.7
003C0CB6 2018-10-08 19:43:10 20.9 36 17.5
003C0CB6 2018-10-08 18:34:57 20.9 36 17
003C0CB6 2018-10-08 17:26:41 20.9 36 17
003C0CB6 2018-10-08 16:18:31 20.8 36 16.5
003C0CB6 2018-10-08 15:10:22 20.8 36 17.1
003C0CB6 2018-10-08 14:02:11 20.8 35 17.5
003C0CB6 2018-10-08 12:54:02 20.8 35 17.5
003C0CB6 2018-10-08 09:29:43 20.5 30 17.8
003C0CB6 2018-10-08 08:21:36 20.4 30 18.1
003C0CB6 2018-10-08 07:13:26 20.4 32 18.1
003C0CB6 2018-10-08 06:05:16 20.4 32 18.1
003C0CB6 2018-10-08 04:57:07 20.4 32 18.4
003C0CB6 2018-10-08 03:49:03 20.4 33 18.7
003C0CB6 2018-10-08 02:40:46 20.4 34 18.9
003C0CB6 2018-10-08 01:32:35 20.4 34 19
003C0CB6 2018-10-08 00:24:25 20.4 35 19.1
003C0CB6 2018-10-07 23:16:17 20.5 35 19.3
003C0CB6 2018-10-07 22:08:10 20.6 36 19.3
003C0CB6 2018-10-07 20:59:58 20.6 37 19.2
003C0CB6 2018-10-07 19:51:48 20.6 37 19.1
003C0CB6 2018-10-07 18:43:36 20.6 37 19.3
003C0CB6 2018-10-07 17:35:26 20.6 37 19.3
003C0CB6 2018-10-07 16:27:13 20.6 37 19.6
003C0CB6 2018-10-07 15:19:02 20.6 37 19.5
003C0CB6 2018-10-07 14:10:53 20.6 37 19.5
003C0CB6 2018-10-07 13:02:41 20.6 37 19.8
003C0CB6 2018-10-07 11:54:24 20.6 37 19.9
003C0CB6 2018-10-07 10:46:13 20.6 37 19.8
003C0CB6 2018-10-07 09:37:58 20.6 37 19.8
003C0CB6 2018-10-07 08:29:47 20.6 38 19.6
003C0CB6 2018-10-07 07:21:33 20.6 38 19.6
003C0CB6 2018-10-07 06:13:17 20.6 38 19.9
003C0CB6 2018-10-07 05:05:06 20.6 39 19.7
003C0CB6 2018-10-07 03:56:56 20.6 39 19.8
003C0CB6 2018-10-07 02:48:47 20.7 39 19.8
003C0CB6 2018-10-07 01:40:41 20.7 39 19.9
003C0CB6 2018-10-07 00:32:24 20.7 39 19.8
003C0CB6 2018-10-06 23:24:17 20.8 40 19.8
003C0CB6 2018-10-06 22:16:04 20.8 39 19.6
003C0CB6 2018-10-06 21:07:54 20.8 39 19.6
003C0CB6 2018-10-06 19:59:46 20.8 39 19.4
003C0CB6 2018-10-06 18:51:38 20.8 39 19.1
003C0CB6 2018-10-06 17:43:27 20.9 39 19
003C0CB6 2018-10-06 16:35:16 20.8 39 19
003C0CB6 2018-10-06 15:27:05 20.8 39 19.1
003C0CB6 2018-10-06 14:18:53 20.8 40 19
003C0CB6 2018-10-06 13:10:40 20.8 39 19.1
003C0CB6 2018-10-06 12:02:31 20.8 39 18.8
003C0CB6 2018-10-06 10:54:21 20.8 39 19
003C0CB6 2018-10-06 09:46:10 20.8 39 18.9
003C0CB6 2018-10-06 08:38:02 20.8 39 18.7
003C0CB6 2018-10-06 07:29:51 20.8 39 18.7
003C0CB6 2018-10-06 06:21:41 20.8 40 18.9
003C0CB6 2018-10-06 05:13:24 20.9 40 19.2
003C0CB6 2018-10-06 04:05:13 21 41 19.1
003C0CB6 2018-10-06 02:56:58 21 41 18.9
003C0CB6 2018-10-06 01:48:47 21 42 18.4
003C0CB6 2018-10-06 00:40:33 21.1 42 18.8
003C0CB6 2018-10-05 23:32:21 21.1 43 17.9
003C0CB6 2018-10-05 22:24:10 21.2 43 18
003C0CB6 2018-10-05 21:15:57 21.3 44 18.1
003C0CB6 2018-10-05 20:07:41 21.3 44 17.3
003C0CB6 2018-10-05 18:59:27 21.4 45 16.4
003C0CB6 2018-10-05 17:51:13 21.5 45 15.3
003C0CB6 2018-10-05 16:42:54 21.7 46 10.1
003C0CB6 2018-10-05 15:34:39 21.7 47 12.1
003C0CB6 2018-10-05 14:26:22 21.9 57 0